Time;durP1;ratioP1;P1;durP2;ratioP2;P2;SDS_P1;SDS_P2;PMS_P1;PMS_P2;Temp;Humidity;BMP_temperature;BMP_pressure;BME280_temperature;BME280_humidity;BME280_pressure;Samples;Min_cycle;Max_cycle;Signal;HPM_P1;HPM_P2
2021/06/24 00:00:10;;;;;;;7.97;7.43;;;22.70;90.00;;;;;;5080841;28;20656;-50
2021/06/24 00:02:37;;;;;;;8.10;7.40;;;22.80;90.00;;;;;;5087916;28;20625;-50
2021/06/24 00:05:06;;;;;;;9.50;7.70;;;22.80;90.00;;;;;;5072467;28;20628;-50
2021/06/24 00:07:34;;;;;;;10.07;7.93;;;22.90;89.40;;;;;;5077279;28;20644;-50
2021/06/24 00:10:02;;;;;;;7.80;7.10;;;23.10;88.80;;;;;;5084196;28;20633;-48
2021/06/24 00:12:29;;;;;;;8.80;8.10;;;23.00;88.40;;;;;;5076013;28;20700;-48
2021/06/24 00:14:57;;;;;;;9.60;8.80;;;22.90;88.70;;;;;;5090889;28;20677;-48
2021/06/24 00:17:24;;;;;;;9.77;8.97;;;22.80;89.20;;;;;;5087849;28;21317;-49
2021/06/24 00:19:51;;;;;;;8.93;8.13;;;22.90;89.20;;;;;;5078037;28;20632;-49
2021/06/24 00:22:18;;;;;;;9.73;8.77;;;22.70;89.10;;;;;;5092135;28;21172;-49
2021/06/24 00:24:46;;;;;;;8.47;7.57;;;22.60;89.60;;;;;;5092186;28;21228;-50
2021/06/24 00:27:14;;;;;;;8.70;8.10;;;22.50;90.10;;;;;;5092204;28;20750;-48
2021/06/24 00:29:41;;;;;;;8.70;7.90;;;22.60;90.00;;;;;;5085935;28;20793;-49
2021/06/24 00:32:09;;;;;;;8.53;7.80;;;22.50;90.10;;;;;;5092331;28;20681;-49
2021/06/24 00:34:36;;;;;;;8.97;8.03;;;22.60;90.30;;;;;;5094535;28;20620;-48
2021/06/24 00:37:04;;;;;;;8.37;7.73;;;22.60;90.10;;;;;;5091515;28;20668;-49
2021/06/24 00:39:31;;;;;;;9.20;8.20;;;22.70;90.00;;;;;;5074814;28;20652;-48
2021/06/24 00:41:58;;;;;;;8.70;7.77;;;22.80;89.80;;;;;;5082510;28;21073;-49
2021/06/24 00:44:27;;;;;;;7.53;6.80;;;22.80;89.30;;;;;;5091169;28;20631;-49
2021/06/24 00:46:55;;;;;;;9.77;8.87;;;22.80;89.20;;;;;;5084222;28;20656;-49
2021/06/24 00:49:22;;;;;;;7.70;7.00;;;22.90;88.40;;;;;;5083797;28;20953;-49
2021/06/24 00:51:49;;;;;;;8.27;7.60;;;22.90;88.40;;;;;;5086238;28;20628;-49
2021/06/24 00:54:16;;;;;;;7.63;7.03;;;22.80;88.00;;;;;;5084988;28;20624;-46
2021/06/24 00:56:43;;;;;;;8.80;8.00;;;22.70;88.40;;;;;;5090326;28;20720;-47
2021/06/24 00:59:11;;;;;;;8.73;8.13;;;22.60;88.90;;;;;;5085384;28;21168;-48
2021/06/24 01:01:39;;;;;;;8.93;8.23;;;22.60;88.90;;;;;;5083189;28;20621;-49
2021/06/24 01:04:06;;;;;;;8.83;8.00;;;22.50;89.00;;;;;;5086025;28;20648;-49
2021/06/24 01:09:05;;;;;;;8.13;7.63;;;22.50;89.70;;;;;;5011123;28;21279;-51
2021/06/24 01:11:32;;;;;;;8.50;7.80;;;22.40;89.70;;;;;;5013130;28;20658;-52
2021/06/24 01:14:00;;;;;;;9.27;8.67;;;22.50;89.90;;;;;;5013224;28;20953;-51
2021/06/24 01:16:27;;;;;;;8.23;7.63;;;22.60;89.40;;;;;;5012729;28;20619;-51
2021/06/24 01:18:55;;;;;;;9.63;8.70;;;22.40;89.50;;;;;;5031852;28;21035;-52
2021/06/24 01:21:23;;;;;;;10.30;9.27;;;22.30;90.00;;;;;;5032258;28;20627;-51
2021/06/24 01:23:51;;;;;;;10.80;9.87;;;22.20;90.10;;;;;;5016953;28;20624;-50
2021/06/24 01:26:18;;;;;;;13.23;9.97;;;22.20;90.40;;;;;;5013395;28;20686;-52
2021/06/24 01:28:46;;;;;;;10.27;9.30;;;22.20;90.60;;;;;;5025030;28;20651;-51
2021/06/24 01:31:13;;;;;;;10.47;9.67;;;22.30;90.50;;;;;;5032631;28;20661;-51
2021/06/24 01:33:40;;;;;;;10.10;9.23;;;22.30;90.70;;;;;;5032208;28;20638;-52
2021/06/24 01:36:08;;;;;;;10.90;8.90;;;22.30;90.80;;;;;;5032595;28;21195;-51
2021/06/24 01:38:36;;;;;;;12.63;11.63;;;22.10;91.10;;;;;;5026847;28;20665;-50
2021/06/24 01:41:04;;;;;;;10.60;9.80;;;22.00;91.50;;;;;;5014758;28;20688;-51
2021/06/24 01:43:31;;;;;;;12.90;11.70;;;21.90;92.10;;;;;;5032127;28;20689;-55
2021/06/24 01:45:59;;;;;;;13.33;12.23;;;21.70;92.70;;;;;;5032772;28;20619;-51
2021/06/24 01:48:28;;;;;;;11.83;10.93;;;21.60;93.30;;;;;;5022043;28;20645;-50
2021/06/24 01:50:56;;;;;;;15.50;11.80;;;21.60;93.40;;;;;;5013448;28;20628;-51
2021/06/24 01:53:23;;;;;;;11.87;10.90;;;21.60;93.40;;;;;;5012862;28;20631;-51
2021/06/24 01:55:52;;;;;;;11.40;10.60;;;21.70;93.00;;;;;;5011710;28;20650;-51
2021/06/24 01:58:23;;;;;;;12.00;11.00;;;21.90;92.50;;;;;;5014100;28;20663;-51
2021/06/24 02:00:51;;;;;;;12.73;11.53;;;21.90;92.40;;;;;;5029179;28;20627;-53
2021/06/24 02:03:19;;;;;;;12.53;11.53;;;21.80;92.80;;;;;;5022376;28;20636;-50
2021/06/24 02:05:48;;;;;;;12.73;11.70;;;21.70;93.10;;;;;;5031253;28;20665;-51
2021/06/24 02:08:16;;;;;;;12.97;11.60;;;21.60;93.30;;;;;;5025659;28;20662;-52
2021/06/24 02:10:44;;;;;;;14.30;11.50;;;21.60;93.40;;;;;;5027789;28;20695;-53
2021/06/24 02:13:12;;;;;;;12.77;10.87;;;21.50;93.60;;;;;;5032471;28;20619;-50
2021/06/24 02:15:41;;;;;;;12.67;11.70;;;21.60;93.50;;;;;;5012034;28;20620;-51
2021/06/24 02:18:09;;;;;;;12.23;11.23;;;21.60;93.60;;;;;;5025251;28;21250;-51
2021/06/24 02:20:36;;;;;;;13.63;12.37;;;21.50;93.70;;;;;;5012490;28;20620;-51
2021/06/24 02:23:03;;;;;;;13.57;12.57;;;21.50;93.90;;;;;;5015125;28;20631;-52
2021/06/24 02:25:32;;;;;;;13.00;12.00;;;21.30;93.90;;;;;;5031598;28;20696;-52
2021/06/24 02:27:59;;;;;;;12.33;11.33;;;21.30;94.10;;;;;;5026406;28;20659;-52
2021/06/24 02:30:26;;;;;;;13.03;12.03;;;21.20;94.20;;;;;;5028094;28;20635;-51
2021/06/24 02:32:55;;;;;;;14.40;12.80;;;21.20;94.30;;;;;;5020101;28;21117;-52
2021/06/24 02:35:22;;;;;;;14.07;12.83;;;21.20;94.40;;;;;;5018716;28;20730;-52
2021/06/24 02:37:50;;;;;;;14.80;13.60;;;21.10;94.50;;;;;;5022101;28;20640;-52
2021/06/24 02:40:18;;;;;;;13.53;12.30;;;21.10;94.40;;;;;;5023498;28;20630;-52
2021/06/24 02:42:46;;;;;;;12.87;11.57;;;21.20;94.40;;;;;;5031444;28;21187;-52
2021/06/24 02:45:14;;;;;;;15.93;13.53;;;21.20;94.40;;;;;;5031130;28;21257;-51
2021/06/24 02:47:41;;;;;;;13.87;12.90;;;21.20;94.30;;;;;;5028710;28;20655;-51
2021/06/24 02:50:11;;;;;;;14.33;12.93;;;21.10;94.40;;;;;;5018556;28;20685;-51
2021/06/24 02:52:38;;;;;;;14.37;12.97;;;21.00;94.60;;;;;;5025015;28;20627;-51
2021/06/24 02:55:06;;;;;;;15.70;14.30;;;21.00;94.90;;;;;;5031539;28;20692;-50
2021/06/24 02:57:34;;;;;;;13.07;11.87;;;21.00;94.90;;;;;;5024125;28;20710;-53
2021/06/24 03:00:01;;;;;;;14.77;13.30;;;20.90;95.10;;;;;;5024931;28;20651;-52
2021/06/24 03:02:29;;;;;;;15.10;13.80;;;20.90;95.20;;;;;;5028527;28;21163;-50
2021/06/24 03:04:56;;;;;;;16.33;14.93;;;20.80;95.30;;;;;;5031103;28;20633;-51
2021/06/24 03:07:25;;;;;;;16.10;14.60;;;20.80;95.60;;;;;;5034257;28;20709;-54
2021/06/24 03:09:52;;;;;;;14.57;13.37;;;20.70;95.60;;;;;;5028224;28;20635;-52
2021/06/24 03:12:19;;;;;;;16.70;15.13;;;20.70;95.60;;;;;;5035496;28;21054;-50
2021/06/24 03:14:46;;;;;;;15.27;13.87;;;20.60;95.60;;;;;;5012934;28;21252;-52
2021/06/24 03:17:14;;;;;;;15.20;13.97;;;20.60;95.60;;;;;;5019334;28;20666;-51
2021/06/24 03:19:41;;;;;;;14.20;13.03;;;20.60;95.80;;;;;;5034115;28;20671;-52
2021/06/24 03:22:08;;;;;;;14.47;13.17;;;20.60;95.80;;;;;;5022354;28;20632;-52
2021/06/24 03:24:37;;;;;;;13.93;12.73;;;20.70;95.80;;;;;;5015572;28;20682;-52
2021/06/24 03:27:05;;;;;;;13.87;12.87;;;20.60;95.60;;;;;;5020592;28;20728;-54
2021/06/24 03:29:32;;;;;;;14.33;13.13;;;20.70;95.60;;;;;;5016298;28;20631;-55
2021/06/24 03:31:59;;;;;;;15.43;14.23;;;20.70;95.50;;;;;;5015222;28;20624;-53
2021/06/24 03:34:26;;;;;;;14.40;13.30;;;20.60;95.60;;;;;;5023812;28;20677;-52
2021/06/24 03:36:54;;;;;;;16.90;15.27;;;20.60;95.60;;;;;;5034119;28;21470;-55
2021/06/24 03:39:21;;;;;;;14.90;13.70;;;20.50;95.60;;;;;;5034882;28;20689;-56
2021/06/24 03:41:50;;;;;;;14.50;13.33;;;20.50;95.80;;;;;;5032433;28;20655;-54
2021/06/24 03:44:17;;;;;;;14.30;13.10;;;20.50;95.70;;;;;;5016175;28;20628;-55
2021/06/24 03:46:44;;;;;;;13.80;12.80;;;20.50;95.70;;;;;;5016010;28;20624;-56
2021/06/24 03:49:12;;;;;;;15.33;14.13;;;20.40;95.80;;;;;;5018676;28;20673;-53
2021/06/24 03:51:39;;;;;;;15.17;13.93;;;20.40;95.80;;;;;;5020648;28;21307;-52
2021/06/24 03:54:06;;;;;;;14.27;12.93;;;20.40;95.80;;;;;;5026699;28;20666;-54
2021/06/24 03:56:34;;;;;;;16.43;14.63;;;20.40;95.80;;;;;;5016747;28;20626;-51
2021/06/24 03:59:02;;;;;;;14.43;13.27;;;20.40;95.80;;;;;;5026573;28;20683;-52
2021/06/24 04:01:30;;;;;;;14.87;13.63;;;20.40;95.70;;;;;;5029712;28;20693;-52
2021/06/24 04:03:58;;;;;;;13.20;12.10;;;20.40;95.60;;;;;;5029732;28;20674;-52
2021/06/24 04:06:25;;;;;;;13.77;12.37;;;20.30;95.70;;;;;;5034213;28;20626;-52
2021/06/24 04:08:52;;;;;;;12.30;11.20;;;20.30;95.90;;;;;;5012314;28;21040;-52
2021/06/24 04:11:19;;;;;;;13.40;12.00;;;20.30;95.80;;;;;;5024047;28;20635;-51
2021/06/24 04:13:47;;;;;;;13.20;12.00;;;20.40;95.90;;;;;;5023220;28;21033;-52
2021/06/24 04:16:15;;;;;;;14.07;12.97;;;20.40;95.80;;;;;;5033933;28;20681;-52
2021/06/24 04:18:43;;;;;;;14.43;12.53;;;20.40;95.80;;;;;;5014353;28;20688;-50
2021/06/24 04:21:10;;;;;;;13.67;12.33;;;20.30;95.70;;;;;;5027632;28;20627;-51
2021/06/24 04:23:37;;;;;;;12.93;11.67;;;20.30;95.70;;;;;;5026337;28;20718;-51
2021/06/24 04:26:04;;;;;;;13.63;12.33;;;20.20;95.80;;;;;;4996269;28;21154;-51
2021/06/24 04:28:32;;;;;;;12.93;11.70;;;20.20;95.80;;;;;;5013945;28;20709;-53
2021/06/24 04:30:59;;;;;;;12.67;11.53;;;20.30;95.80;;;;;;5020786;28;20623;-51
2021/06/24 04:33:27;;;;;;;10.90;10.00;;;20.30;95.50;;;;;;5031046;28;21003;-51
2021/06/24 04:35:55;;;;;;;12.07;11.17;;;20.30;95.60;;;;;;5027513;28;20622;-53
2021/06/24 04:38:22;;;;;;;11.83;10.73;;;20.30;95.70;;;;;;5027742;28;20658;-53
2021/06/24 04:40:49;;;;;;;12.40;11.30;;;20.30;95.80;;;;;;5033547;28;20659;-51
2021/06/24 04:43:17;;;;;;;12.70;11.53;;;20.40;95.80;;;;;;5027171;28;20631;-52
2021/06/24 04:45:44;;;;;;;13.20;12.20;;;20.40;95.80;;;;;;5029787;28;20631;-54
2021/06/24 04:48:11;;;;;;;13.10;12.10;;;20.40;96.10;;;;;;5015522;28;20694;-52
2021/06/24 04:50:40;;;;;;;14.70;13.30;;;20.40;96.20;;;;;;5023413;28;21168;-53
2021/06/24 04:53:08;;;;;;;14.90;13.67;;;20.30;96.30;;;;;;5026516;28;20659;-52
2021/06/24 04:55:39;;;;;;;20.10;13.90;;;20.30;96.70;;;;;;5032496;28;20627;-52
2021/06/24 04:58:06;;;;;;;14.27;13.17;;;20.30;96.80;;;;;;5030820;28;20717;-52
2021/06/24 05:00:34;;;;;;;15.53;14.43;;;20.20;96.90;;;;;;5019148;28;21214;-50
2021/06/24 05:03:01;;;;;;;16.10;14.77;;;20.20;97.00;;;;;;5016637;28;20628;-52
2021/06/24 05:05:28;;;;;;;15.57;14.27;;;20.10;97.20;;;;;;5043049;28;20679;-50
2021/06/24 05:07:57;;;;;;;15.87;14.67;;;20.20;97.20;;;;;;5050273;28;20701;-51
2021/06/24 05:10:25;;;;;;;18.73;15.37;;;20.20;97.10;;;;;;5030803;28;20657;-54
2021/06/24 05:12:52;;;;;;;15.40;14.10;;;20.20;97.10;;;;;;5027325;28;20634;-55
2021/06/24 05:15:19;;;;;;;16.27;14.97;;;20.10;97.20;;;;;;5018133;28;20789;-56
2021/06/24 05:17:47;;;;;;;17.30;16.00;;;20.10;97.30;;;;;;5032309;28;20685;-54
2021/06/24 05:20:14;;;;;;;15.87;14.53;;;20.10;97.30;;;;;;5041254;28;20646;-53
2021/06/24 05:22:41;;;;;;;16.30;15.00;;;20.10;97.50;;;;;;5033880;28;20631;-55
2021/06/24 05:25:12;;;;;;;16.63;15.03;;;20.10;97.40;;;;;;5018222;28;20673;-56
2021/06/24 05:27:39;;;;;;;17.83;16.33;;;20.10;97.40;;;;;;5013130;28;21034;-53
2021/06/24 05:30:07;;;;;;;15.90;14.70;;;20.10;97.30;;;;;;5012513;28;20643;-52
2021/06/24 05:32:35;;;;;;;17.07;15.57;;;20.10;97.30;;;;;;5029694;28;20681;-51
2021/06/24 05:35:02;;;;;;;16.43;14.93;;;20.10;97.30;;;;;;5030935;28;20689;-55
2021/06/24 05:37:29;;;;;;;17.33;15.90;;;20.10;97.30;;;;;;5033294;28;20714;-55
2021/06/24 05:39:57;;;;;;;18.03;16.43;;;20.10;97.40;;;;;;5024923;28;20762;-52
2021/06/24 05:42:25;;;;;;;16.10;14.80;;;20.00;97.50;;;;;;5032513;28;20627;-55
2021/06/24 05:44:53;;;;;;;18.63;17.10;;;20.00;97.30;;;;;;5017094;28;20636;-56
2021/06/24 05:47:20;;;;;;;18.80;17.17;;;19.90;97.30;;;;;;5023131;28;21007;-53
2021/06/24 05:49:48;;;;;;;18.77;17.10;;;19.90;97.50;;;;;;5013197;28;20706;-51
2021/06/24 05:52:15;;;;;;;17.63;16.13;;;19.90;97.70;;;;;;5023187;28;20754;-52
2021/06/24 05:54:42;;;;;;;19.83;17.70;;;19.90;97.80;;;;;;4999592;28;20701;-52
2021/06/24 05:57:10;;;;;;;18.83;17.43;;;19.90;97.70;;;;;;5011947;28;21024;-52
2021/06/24 05:59:38;;;;;;;18.27;16.87;;;19.90;97.80;;;;;;5011573;28;20667;-52
2021/06/24 06:02:06;;;;;;;16.70;15.30;;;19.90;97.80;;;;;;5026874;28;20624;-52
2021/06/24 06:04:33;;;;;;;19.23;17.63;;;19.90;97.60;;;;;;5029188;28;20757;-50
2021/06/24 06:07:00;;;;;;;16.80;15.40;;;19.80;97.70;;;;;;5031495;28;20654;-52
2021/06/24 06:09:28;;;;;;;19.17;17.40;;;19.80;97.80;;;;;;5012770;28;20666;-50
2021/06/24 06:11:56;;;;;;;19.50;17.90;;;19.80;98.20;;;;;;5030164;28;21115;-52
2021/06/24 06:14:23;;;;;;;18.20;16.80;;;19.90;98.30;;;;;;5018527;28;20998;-53
2021/06/24 06:16:51;;;;;;;19.80;18.20;;;19.80;98.10;;;;;;5010634;28;20631;-54
2021/06/24 06:19:19;;;;;;;17.53;16.23;;;19.80;98.20;;;;;;5010651;28;21211;-52
2021/06/24 06:21:46;;;;;;;18.23;16.90;;;19.90;98.20;;;;;;5023940;28;20667;-53
2021/06/24 06:24:13;;;;;;;19.77;18.07;;;19.90;98.20;;;;;;5021178;28;20627;-53
2021/06/24 06:26:40;;;;;;;17.10;15.70;;;19.90;98.20;;;;;;5029053;28;20687;-52
2021/06/24 06:29:08;;;;;;;18.00;16.40;;;19.90;98.30;;;;;;5030984;28;20676;-52
2021/06/24 06:31:37;;;;;;;18.90;17.13;;;20.00;98.10;;;;;;5021441;28;20682;-52
2021/06/24 06:34:06;;;;;;;18.67;17.07;;;20.00;98.10;;;;;;5020202;28;20684;-52
2021/06/24 06:36:33;;;;;;;18.17;16.77;;;20.10;98.10;;;;;;5031011;28;20638;-51
2021/06/24 06:39:01;;;;;;;18.93;17.43;;;20.10;98.10;;;;;;5030402;28;21273;-52
2021/06/24 06:41:28;;;;;;;16.90;15.70;;;20.10;98.30;;;;;;5028126;28;21081;-52
2021/06/24 06:43:55;;;;;;;19.30;17.80;;;20.10;98.30;;;;;;5017770;28;20623;-53
2021/06/24 06:46:23;;;;;;;16.50;15.17;;;20.20;98.10;;;;;;5031237;28;20631;-55
2021/06/24 06:48:50;;;;;;;17.27;16.03;;;20.30;98.10;;;;;;5030962;28;20687;-53
2021/06/24 06:51:19;;;;;;;18.23;16.40;;;20.20;98.00;;;;;;5027138;28;20685;-53
2021/06/24 06:53:46;;;;;;;17.40;16.00;;;20.30;97.90;;;;;;5017185;28;20630;-53
2021/06/24 06:56:14;;;;;;;16.53;15.33;;;20.30;97.90;;;;;;5026081;28;20620;-52
2021/06/24 06:58:41;;;;;;;17.40;16.07;;;20.40;97.80;;;;;;5011811;28;20663;-52
2021/06/24 07:01:08;;;;;;;16.27;14.83;;;20.30;97.70;;;;;;5011326;28;20695;-52
2021/06/24 07:03:35;;;;;;;16.73;15.43;;;20.40;97.60;;;;;;5011749;28;20898;-52
2021/06/24 07:06:03;;;;;;;17.43;15.93;;;20.30;97.50;;;;;;5030019;28;21019;-51
2021/06/24 07:08:32;;;;;;;17.30;15.60;;;20.30;97.60;;;;;;5089033;22;20862;-50
2021/06/24 07:10:59;;;;;;;17.37;15.90;;;20.30;97.70;;;;;;5102406;28;20673;-50
2021/06/24 07:13:29;;;;;;;17.87;16.53;;;20.20;97.90;;;;;;5090219;28;20620;-49
2021/06/24 07:15:57;;;;;;;18.50;17.10;;;20.20;98.00;;;;;;5091827;28;20623;-48
2021/06/24 07:18:25;;;;;;;18.00;16.60;;;20.10;98.10;;;;;;5090377;28;20648;-49
2021/06/24 07:20:53;;;;;;;20.27;18.57;;;20.10;98.80;;;;;;5087917;28;20658;-49
2021/06/24 07:23:21;;;;;;;18.60;17.20;;;20.10;98.60;;;;;;5090101;28;20616;-50
2021/06/24 07:25:53;;;;;;;17.50;16.00;;;20.00;98.40;;;;;;5088649;28;20628;-50
2021/06/24 07:28:20;;;;;;;16.03;14.47;;;20.00;98.60;;;;;;5089210;28;21009;-50
2021/06/24 07:30:49;;;;;;;18.87;17.17;;;20.10;98.80;;;;;;5089442;28;20636;-49
2021/06/24 07:33:16;;;;;;;17.33;15.97;;;20.10;98.80;;;;;;5089005;28;20673;-48
2021/06/24 07:35:44;;;;;;;17.50;16.00;;;20.10;98.90;;;;;;5088925;28;20685;-47
2021/06/24 07:38:12;;;;;;;19.77;17.87;;;20.10;99.00;;;;;;5089007;28;20648;-48
2021/06/24 07:40:39;;;;;;;16.87;15.40;;;20.10;99.00;;;;;;5064801;28;20730;-48
2021/06/24 07:43:09;;;;;;;17.17;15.87;;;20.10;99.00;;;;;;5083656;28;21233;-49
2021/06/24 07:45:37;;;;;;;17.07;15.70;;;20.20;99.10;;;;;;5072473;28;20628;-50
2021/06/24 07:48:06;;;;;;;18.20;16.53;;;20.20;99.00;;;;;;5089250;28;20648;-53
2021/06/24 07:50:33;;;;;;;17.07;15.87;;;20.30;98.90;;;;;;5088991;28;20765;-49
2021/06/24 07:53:01;;;;;;;17.20;15.70;;;20.30;98.70;;;;;;5089915;28;20613;-48
2021/06/24 07:55:34;;;;;;;18.73;17.23;;;20.40;98.60;;;;;;5091751;28;20678;-48
2021/06/24 07:58:01;;;;;;;18.40;16.90;;;20.50;98.50;;;;;;5092316;28;20729;-48
2021/06/24 08:00:30;;;;;;;19.03;17.33;;;20.40;98.30;;;;;;5092935;28;20682;-48
2021/06/24 08:02:57;;;;;;;22.87;20.70;;;20.40;98.60;;;;;;5093098;28;20686;-49
2021/06/24 08:05:25;;;;;;;17.77;16.27;;;20.40;98.90;;;;;;5091510;28;20612;-49
2021/06/24 08:07:52;;;;;;;19.50;17.90;;;20.40;98.70;;;;;;5092569;28;21164;-50
2021/06/24 08:10:20;;;;;;;18.83;17.37;;;20.40;98.70;;;;;;5079403;28;20632;-49
2021/06/24 08:12:48;;;;;;;17.83;16.63;;;20.40;98.70;;;;;;5072335;28;20678;-49
2021/06/24 08:15:16;;;;;;;19.05;17.45;;;20.40;98.80;;;;;;5072037;28;21215;-48
2021/06/24 08:17:46;;;;;;;21.73;19.77;;;20.30;98.90;;;;;;5071803;28;21208;-48
2021/06/24 08:20:14;;;;;;;18.60;17.20;;;20.20;98.80;;;;;;5071639;28;21195;-48
2021/06/24 08:22:41;;;;;;;21.23;19.33;;;20.20;99.20;;;;;;5070403;28;20660;-48
2021/06/24 08:25:09;;;;;;;20.10;18.40;;;20.20;99.20;;;;;;5072007;28;20625;-50
2021/06/24 08:27:38;;;;;;;19.50;18.00;;;20.20;99.20;;;;;;5072331;28;20733;-48
2021/06/24 08:30:06;;;;;;;20.73;19.07;;;20.20;99.20;;;;;;5071443;28;20725;-48
2021/06/24 08:32:34;;;;;;;22.03;20.03;;;20.20;99.20;;;;;;5072021;28;21219;-48
2021/06/24 08:35:03;;;;;;;19.73;17.97;;;20.20;99.30;;;;;;5071707;28;20629;-48
2021/06/24 08:37:30;;;;;;;19.10;17.60;;;20.20;99.40;;;;;;5071652;28;20680;-48
2021/06/24 08:39:57;;;;;;;20.20;18.60;;;20.30;99.30;;;;;;5071047;28;20682;-50
2021/06/24 08:42:24;;;;;;;20.30;18.63;;;20.30;99.30;;;;;;5071561;28;20769;-49
2021/06/24 08:44:55;;;;;;;20.00;18.40;;;20.30;99.40;;;;;;5072231;28;20625;-48
2021/06/24 08:47:24;;;;;;;19.97;18.50;;;20.40;99.10;;;;;;5071417;28;21090;-48
2021/06/24 08:49:52;;;;;;;18.83;17.20;;;20.30;99.20;;;;;;5071655;28;20620;-48
2021/06/24 08:52:21;;;;;;;18.03;16.53;;;20.30;99.30;;;;;;5071782;28;20647;-46
2021/06/24 08:54:48;;;;;;;20.63;18.93;;;20.30;99.30;;;;;;5071534;28;20629;-49
2021/06/24 08:57:20;;;;;;;20.73;19.00;;;20.30;99.40;;;;;;5072137;28;20719;-50
2021/06/24 08:59:58;;;;;;;19.30;17.80;;;20.20;99.50;;;;;;5071390;28;20625;-50
2021/06/24 09:02:37;;;;;;;19.50;18.10;;;20.20;99.50;;;;;;5071527;28;20652;-49
2021/06/24 09:05:05;;;;;;;18.23;16.83;;;20.20;99.60;;;;;;5065635;28;20622;-49
2021/06/24 09:07:49;;;;;;;22.33;20.50;;;20.10;99.80;;;;;;5051263;28;20708;-47
2021/06/24 09:10:18;;;;;;;22.13;20.13;;;20.10;99.90;;;;;;5062085;28;20629;-50
2021/06/24 09:12:52;;;;;;;20.50;18.77;;;20.10;99.80;;;;;;5071816;28;20706;-48
2021/06/24 09:15:19;;;;;;;18.80;17.37;;;20.10;99.90;;;;;;5072016;28;20636;-48
2021/06/24 09:17:47;;;;;;;21.33;19.63;;;20.00;99.80;;;;;;5072092;28;20649;-48
2021/06/24 09:20:31;;;;;;;24.20;22.30;;;20.00;99.90;;;;;;5072280;28;20633;-49
2021/06/24 09:23:07;;;;;;;20.30;18.60;;;20.00;99.90;;;;;;5061261;28;20657;-48
2021/06/24 09:25:35;;;;;;;21.97;20.30;;;20.00;99.90;;;;;;5052500;28;20638;-52
2021/06/24 09:28:02;;;;;;;24.30;22.30;;;19.90;99.90;;;;;;5050479;28;20693;-53
2021/06/24 09:30:35;;;;;;;23.47;21.57;;;20.00;99.90;;;;;;5050946;28;20634;-50
2021/06/24 09:33:07;;;;;;;23.47;21.57;;;20.00;99.90;;;;;;5051068;28;20653;-49
2021/06/24 09:35:34;;;;;;;23.37;21.00;;;20.00;99.90;;;;;;5051013;28;20633;-49
2021/06/24 09:38:10;;;;;;;22.60;20.60;;;20.00;99.90;;;;;;5050618;28;20732;-50
2021/06/24 09:40:45;;;;;;;22.73;20.93;;;20.00;99.90;;;;;;5066842;28;20755;-48
2021/06/24 09:43:32;;;;;;;21.10;19.00;;;20.00;99.90;;;;;;5071342;28;20665;-48
2021/06/24 09:46:00;;;;;;;24.63;22.63;;;20.00;99.90;;;;;;5068430;28;20645;-49
2021/06/24 09:48:41;;;;;;;21.00;19.23;;;20.00;99.90;;;;;;5070659;28;20630;-49
2021/06/24 09:51:16;;;;;;;21.67;19.87;;;20.00;99.90;;;;;;5068407;28;21307;-49
2021/06/24 09:53:54;;;;;;;22.90;21.00;;;20.00;99.90;;;;;;5070774;28;20621;-49
2021/06/24 09:56:23;;;;;;;21.07;19.33;;;20.00;99.90;;;;;;5071116;28;20597;-48
2021/06/24 09:58:51;;;;;;;21.40;19.63;;;20.10;99.90;;;;;;5070142;28;20711;-50
2021/06/24 10:01:28;;;;;;;22.10;20.30;;;20.10;99.90;;;;;;5070481;28;20629;-48
2021/06/24 10:03:56;;;;;;;23.70;21.70;;;20.00;99.90;;;;;;5070399;28;20686;-48
2021/06/24 10:06:24;;;;;;;21.33;19.63;;;20.00;99.90;;;;;;5070004;28;20633;-47
2021/06/24 10:08:53;;;;;;;22.70;20.90;;;20.10;99.90;;;;;;5070882;28;20689;-48
2021/06/24 10:11:21;;;;;;;21.93;20.07;;;20.00;99.90;;;;;;5071082;28;20962;-48
2021/06/24 10:13:48;;;;;;;21.17;19.37;;;20.00;99.90;;;;;;5068221;28;20693;-47
2021/06/24 10:16:16;;;;;;;22.40;20.50;;;20.00;99.90;;;;;;5069278;28;20629;-48
2021/06/24 10:18:46;;;;;;;19.93;18.23;;;20.00;99.90;;;;;;5069872;28;20656;-48
2021/06/24 10:21:14;;;;;;;17.83;16.23;;;20.00;99.90;;;;;;5070792;28;20641;-50
2021/06/24 10:23:56;;;;;;;20.87;18.97;;;20.00;99.90;;;;;;5074808;28;20678;-49
2021/06/24 10:26:25;;;;;;;19.40;17.70;;;20.00;99.90;;;;;;5070260;28;20748;-49
2021/06/24 10:29:12;;;;;;;20.30;18.60;;;19.90;99.90;;;;;;5068075;28;20677;-48
2021/06/24 10:31:40;;;;;;;23.00;21.30;;;20.00;99.90;;;;;;5069894;28;21149;-48
2021/06/24 10:34:08;;;;;;;19.73;18.03;;;20.10;99.90;;;;;;5069731;28;21006;-49
2021/06/24 10:36:36;;;;;;;18.90;17.50;;;20.10;99.90;;;;;;5069652;28;20629;-49
2021/06/24 10:39:06;;;;;;;19.20;17.73;;;20.10;99.90;;;;;;5069665;28;20663;-48
2021/06/24 10:42:04;;;;;;;19.73;18.03;;;20.00;99.90;;;;;;5069523;28;20683;-49
2021/06/24 10:44:52;;;;;;;19.10;17.70;;;20.00;99.90;;;;;;5035312;28;21197;-49
2021/06/24 10:47:33;;;;;;;19.70;18.20;;;20.00;99.90;;;;;;5070017;28;20779;-50
2021/06/24 10:50:42;;;;;;;19.37;17.77;;;20.00;99.90;;;;;;5069507;28;21181;-48
2021/06/24 10:53:46;;;;;;;18.73;17.33;;;20.00;99.90;;;;;;5069728;28;21184;-50
2021/06/24 10:56:29;;;;;;;18.70;17.20;;;20.00;99.90;;;;;;5068260;28;20911;-48
2021/06/24 10:58:56;;;;;;;21.07;19.47;;;20.10;99.90;;;;;;5069665;28;20706;-50
2021/06/24 11:01:40;;;;;;;17.17;15.80;;;20.10;99.90;;;;;;5070003;28;20605;-49
2021/06/24 11:04:28;;;;;;;18.70;17.30;;;20.10;99.90;;;;;;5070028;28;20685;-50
2021/06/24 11:06:55;;;;;;;18.47;17.00;;;20.10;99.90;;;;;;5069730;28;20653;-47
2021/06/24 11:09:23;;;;;;;17.33;16.00;;;20.10;99.90;;;;;;5070356;28;20633;-49
2021/06/24 11:11:52;;;;;;;19.50;17.87;;;20.10;99.90;;;;;;5070340;28;20617;-50
2021/06/24 11:14:55;;;;;;;20.10;18.23;;;20.10;99.90;;;;;;5069886;28;20695;-51
2021/06/24 11:17:45;;;;;;;17.90;16.47;;;20.20;99.90;;;;;;5068642;28;20648;-49
2021/06/24 11:20:17;;;;;;;17.20;15.87;;;20.20;99.90;;;;;;5068812;28;20720;-50
2021/06/24 11:22:48;;;;;;;16.77;15.53;;;20.20;99.90;;;;;;5068965;28;20730;-49
2021/06/24 11:25:16;;;;;;;17.20;15.80;;;20.20;99.90;;;;;;5069444;28;20674;-50
2021/06/24 11:27:44;;;;;;;18.80;17.37;;;20.20;99.90;;;;;;5071434;28;20652;-51
2021/06/24 11:30:13;;;;;;;17.97;16.50;;;20.20;99.90;;;;;;5073636;28;20641;-51
2021/06/24 11:32:44;;;;;;;20.53;18.73;;;20.20;99.90;;;;;;5073244;28;20686;-50
2021/06/24 11:37:53;;;;;;;18.20;16.80;;;20.20;99.90;;;;;;5072253;28;20714;-50
2021/06/24 11:40:21;;;;;;;17.20;15.87;;;20.20;99.90;;;;;;5071338;28;20621;-47
2021/06/24 11:42:52;;;;;;;19.67;18.07;;;20.30;99.90;;;;;;5073270;28;20744;-47
2021/06/24 11:45:19;;;;;;;17.73;16.37;;;20.30;99.90;;;;;;5072603;28;20625;-48
2021/06/24 11:47:49;;;;;;;16.40;15.20;;;20.40;99.90;;;;;;5073525;28;20726;-49
2021/06/24 12:04:26;;;;;;;18.93;17.13;;;20.60;99.90;;;;;;5047884;28;20653;-49
2021/06/24 12:06:56;;;;;;;17.90;16.50;;;20.70;99.90;;;;;;5071958;28;20777;-48
2021/06/24 12:09:24;;;;;;;16.60;15.33;;;20.80;99.80;;;;;;5072418;28;20625;-49
2021/06/24 12:11:54;;;;;;;16.43;15.23;;;20.80;99.70;;;;;;5072496;28;20624;-49
2021/06/24 12:14:25;;;;;;;16.47;15.27;;;20.90;99.90;;;;;;5072388;28;20617;-48
2021/06/24 12:17:12;;;;;;;14.73;13.63;;;20.90;99.90;;;;;;5072525;28;20703;-48
2021/06/24 12:19:47;;;;;;;13.30;12.20;;;21.00;99.90;;;;;;5072677;28;20650;-49
2021/06/24 12:22:15;;;;;;;16.10;14.90;;;21.10;99.20;;;;;;5072722;28;20628;-48
2021/06/24 12:24:43;;;;;;;15.10;13.90;;;21.10;98.70;;;;;;5072728;28;20647;-49
2021/06/24 12:27:18;;;;;;;15.70;14.57;;;21.10;98.90;;;;;;5072212;28;21286;-48
2021/06/24 12:29:47;;;;;;;14.10;13.10;;;21.10;98.90;;;;;;5072281;28;20628;-49
2021/06/24 12:32:14;;;;;;;14.70;13.50;;;21.00;98.90;;;;;;5071961;28;20963;-48
2021/06/24 12:34:41;;;;;;;15.80;14.50;;;21.00;98.40;;;;;;5071796;28;20686;-48
2021/06/24 12:37:08;;;;;;;15.37;14.17;;;21.00;98.50;;;;;;5072463;28;20657;-48
2021/06/24 12:39:36;;;;;;;15.90;14.60;;;21.00;98.90;;;;;;5070642;28;20639;-49
2021/06/24 12:42:04;;;;;;;13.87;12.70;;;21.00;98.90;;;;;;5072172;28;21203;-49
2021/06/24 12:44:37;;;;;;;14.73;13.43;;;21.10;98.60;;;;;;5072091;28;20685;-49
2021/06/24 12:47:06;;;;;;;14.83;13.73;;;21.30;98.90;;;;;;5072281;28;21316;-48
2021/06/24 12:49:35;;;;;;;15.40;14.30;;;21.30;98.70;;;;;;5072005;28;20624;-49
2021/06/24 12:52:04;;;;;;;18.00;16.17;;;21.30;98.80;;;;;;5072131;28;21010;-50
2021/06/24 12:54:38;;;;;;;16.30;14.97;;;21.30;98.80;;;;;;5071857;28;20621;-49
2021/06/24 12:57:06;;;;;;;15.90;14.50;;;21.30;99.00;;;;;;5070525;28;20657;-49